• vieta
  • image
  • image
  • image
mod_vvisit_countermod_vvisit_countermod_vvisit_countermod_vvisit_countermod_vvisit_countermod_vvisit_counter
mod_vvisit_counterŠiandien68
mod_vvisit_counterVakar440
mod_vvisit_counterŠią savaitę508
mod_vvisit_counterPraėjusią savaitę3740
mod_vvisit_counterŠį mėnesį11235
mod_vvisit_counterPraėjusį mėnesį21442
mod_vvisit_counterViso718464

Mes turime: 2 svečius, 1 bots online
Jūsų IP: 54.225.20.19
 , 
Šiandien: Rugp 22, 2017

Šiandien

Antradienis, 22 Rugpjūtis 2017

Orų prognozė

Šiauliai °C
   

Orų prognozė aviacijai

[source: ADDS]
METAR
EYSA 220050Z AUTO 24004KT 9999NDV BR NSC 10/09 Q1014 =
TAF
TAF EYSA 212300Z 2200/2209 VRB04KT 5000 BR SCT005 TEMPO 2200/2205 0500 FG VV002 BECMG 2205/2207 BKN015 =
SR / SS: 03:16 / 17:44 UTC (EYSA 2017-08-22)

Paieška

Lankytojai

Mes turime 3 svečius online

tic logo lt